createdAt,value
2022-12-18T00:01:43.794Z,66.24
2022-12-18T00:07:05.863Z,66.24
2022-12-18T00:12:29.895Z,65.86
2022-12-18T00:17:52.529Z,65.76
2022-12-18T00:23:14.692Z,65.61
2022-12-18T00:28:36.761Z,65.57
2022-12-18T00:33:59.127Z,65.68
2022-12-18T00:39:21.048Z,65.77
2022-12-18T00:44:42.977Z,65.53
2022-12-18T00:50:05.464Z,65.68
2022-12-18T00:55:27.137Z,65.65
2022-12-18T01:00:49.397Z,65.40
2022-12-18T01:06:13.906Z,65.37
2022-12-18T01:11:35.634Z,65.59
2022-12-18T01:16:57.364Z,65.59
2022-12-18T01:22:19.395Z,65.51
2022-12-18T01:27:41.323Z,65.33
2022-12-18T01:33:05.603Z,65.32
2022-12-18T01:38:29.596Z,65.54
2022-12-18T01:43:56.043Z,65.29
2022-12-18T01:49:17.870Z,65.19
2022-12-18T01:54:39.736Z,65.35
2022-12-18T02:00:14.394Z,65.13
2022-12-18T02:05:51.357Z,65.00
2022-12-18T02:11:33.859Z,65.14
2022-12-18T02:17:09.187Z,65.21
2022-12-18T02:22:38.095Z,65.20
2022-12-18T02:28:03.577Z,65.04
2022-12-18T02:33:28.568Z,65.14
2022-12-18T02:38:53.114Z,65.42
2022-12-18T02:44:15.356Z,65.38
2022-12-18T02:49:46.002Z,65.32
2022-12-18T02:55:27.194Z,65.27
2022-12-18T03:01:11.059Z,65.72
2022-12-18T03:06:38.014Z,65.92
2022-12-18T03:12:24.966Z,65.85
2022-12-18T03:18:03.459Z,65.83
2022-12-18T03:23:29.094Z,65.84
2022-12-18T03:28:57.345Z,65.76
2022-12-18T03:34:25.095Z,66.00
2022-12-18T03:39:47.155Z,66.02
2022-12-18T03:45:21.698Z,66.06
2022-12-18T03:51:16.143Z,65.86
2022-12-18T03:56:41.784Z,66.05
2022-12-18T04:02:06.047Z,65.90
2022-12-18T04:07:28.373Z,65.76
2022-12-18T04:12:57.205Z,65.64
2022-12-18T04:18:19.736Z,65.95
2022-12-18T04:23:42.755Z,65.78
2022-12-18T04:29:04.799Z,66.02
2022-12-18T04:34:27.338Z,66.03
2022-12-18T04:39:49.662Z,65.91
2022-12-18T04:45:17.211Z,66.04
2022-12-18T04:50:39.442Z,66.05
2022-12-18T04:56:06.630Z,65.97
2022-12-18T05:01:34.322Z,66.10
2022-12-18T05:06:56.567Z,66.11
2022-12-18T05:12:18.500Z,66.25
2022-12-18T05:17:40.133Z,66.65
2022-12-18T05:23:02.056Z,67.16
2022-12-18T05:28:25.188Z,66.89
2022-12-18T05:33:47.118Z,66.71
2022-12-18T05:39:08.806Z,66.82
2022-12-18T05:44:30.675Z,66.82
2022-12-18T05:49:52.707Z,66.62
2022-12-18T05:55:14.548Z,66.74
2022-12-18T06:00:42.485Z,66.80
2022-12-18T06:06:04.580Z,66.66
2022-12-18T06:11:27.649Z,66.35
2022-12-18T06:16:52.454Z,66.26
2022-12-18T06:22:14.316Z,66.53
2022-12-18T06:27:38.553Z,66.38
2022-12-18T06:33:00.782Z,66.34
2022-12-18T06:38:22.713Z,66.23
2022-12-18T06:43:44.962Z,66.38
2022-12-18T06:49:07.275Z,66.54
2022-12-18T06:54:28.901Z,66.45
2022-12-18T06:59:50.931Z,66.30
2022-12-18T07:05:12.661Z,66.45
2022-12-18T07:10:34.290Z,66.57
2022-12-18T07:15:56.342Z,66.54
2022-12-18T07:21:22.060Z,66.42
2022-12-18T07:26:46.599Z,66.31
2022-12-18T07:32:09.385Z,66.26
2022-12-18T07:37:31.764Z,66.31
2022-12-18T07:42:53.391Z,66.36
2022-12-18T07:48:15.426Z,65.97
2022-12-18T07:53:37.927Z,66.06
2022-12-18T07:59:00.927Z,65.64
2022-12-18T08:04:22.822Z,65.57
2022-12-18T08:09:44.542Z,65.68
2022-12-18T08:15:07.480Z,65.74
2022-12-18T08:20:29.275Z,66.23
2022-12-18T08:25:52.126Z,66.12
2022-12-18T08:31:13.994Z,65.77
2022-12-18T08:36:36.201Z,65.70
2022-12-18T08:42:16.491Z,65.74
2022-12-18T08:47:38.520Z,65.53
2022-12-18T08:53:00.450Z,65.23
2022-12-18T08:58:22.380Z,65.00
2022-12-18T09:03:44.709Z,64.64
2022-12-18T09:09:07.144Z,64.42
2022-12-18T09:14:28.965Z,63.95
2022-12-18T09:19:50.597Z,63.55
2022-12-18T09:25:12.560Z,63.10
2022-12-18T09:30:35.237Z,62.59
2022-12-18T09:35:57.489Z,62.21
2022-12-18T09:41:38.099Z,62.11
2022-12-18T09:47:11.454Z,61.38
2022-12-18T09:52:43.825Z,60.82
2022-12-18T09:58:37.520Z,61.02
2022-12-18T10:04:00.256Z,60.66
2022-12-18T10:09:43.896Z,59.99
2022-12-18T10:15:17.103Z,59.83
2022-12-18T10:20:39.194Z,59.49
2022-12-18T10:26:06.865Z,60.21
2022-12-18T10:31:29.010Z,60.35
2022-12-18T10:36:51.308Z,59.80
2022-12-18T10:42:22.090Z,60.29
2022-12-18T10:47:49.476Z,60.56
2022-12-18T10:53:23.188Z,60.62
2022-12-18T10:59:03.378Z,60.66
2022-12-18T11:04:31.129Z,60.56
2022-12-18T11:10:04.297Z,60.55
2022-12-18T11:15:29.337Z,61.10
2022-12-18T11:20:58.292Z,61.63
2022-12-18T11:26:21.625Z,61.95
2022-12-18T11:31:43.213Z,62.18
2022-12-18T11:37:05.182Z,63.05
2022-12-18T11:42:47.884Z,63.52
2022-12-18T11:48:20.951Z,63.23
2022-12-18T11:53:42.681Z,62.87
2022-12-18T11:59:31.548Z,62.92
2022-12-18T12:05:02.669Z,62.97
2022-12-18T12:10:39.548Z,63.38
2022-12-18T12:16:26.529Z,63.14
2022-12-18T12:22:10.174Z,62.63
2022-12-18T12:27:41.244Z,62.87
2022-12-18T12:33:13.398Z,62.79
2022-12-18T12:38:51.642Z,63.15
2022-12-18T12:44:39.512Z,63.13
2022-12-18T12:50:04.289Z,62.78
2022-12-18T12:55:29.685Z,62.99
2022-12-18T13:01:10.326Z,63.14
2022-12-18T13:06:46.259Z,63.17
2022-12-18T13:12:34.870Z,62.96
2022-12-18T13:18:19.995Z,63.04
2022-12-18T13:23:42.170Z,63.07
2022-12-18T13:29:06.018Z,63.16
2022-12-18T13:34:31.245Z,63.40
2022-12-18T13:39:53.331Z,63.98
2022-12-18T13:45:47.534Z,63.99
2022-12-18T13:51:11.407Z,63.94
2022-12-18T13:56:35.353Z,64.07
2022-12-18T14:02:04.260Z,64.06
2022-12-18T14:07:30.824Z,64.61
2022-12-18T14:13:06.432Z,65.04
2022-12-18T14:18:45.524Z,65.23
2022-12-18T14:24:13.561Z,65.75
2022-12-18T14:29:35.996Z,65.87
2022-12-18T14:34:58.298Z,65.80
2022-12-18T14:40:20.151Z,66.12
2022-12-18T14:45:45.752Z,66.51
2022-12-18T14:51:17.998Z,66.91
2022-12-18T14:56:48.920Z,67.32
2022-12-18T15:02:17.038Z,67.34
2022-12-18T15:07:47.787Z,67.15
2022-12-18T15:13:16.933Z,66.96
2022-12-18T15:18:42.811Z,67.23
2022-12-18T15:24:05.060Z,66.98
2022-12-18T15:29:27.694Z,66.89
2022-12-18T15:34:49.340Z,67.05
2022-12-18T15:40:20.098Z,67.56
2022-12-18T15:45:42.010Z,67.69
2022-12-18T15:51:03.838Z,67.54
2022-12-18T15:56:44.132Z,67.58
2022-12-18T16:02:16.299Z,67.79
2022-12-18T16:07:38.460Z,67.60
2022-12-18T16:13:00.358Z,67.54
2022-12-18T16:18:22.689Z,68.05
2022-12-18T16:23:44.547Z,68.99
2022-12-18T16:29:06.145Z,68.56
2022-12-18T16:34:35.683Z,68.44
2022-12-18T16:39:58.032Z,68.43
2022-12-18T16:45:20.005Z,68.34
2022-12-18T16:50:42.193Z,68.69
2022-12-18T16:56:04.423Z,69.53
2022-12-18T17:01:30.296Z,69.43
2022-12-18T17:06:54.104Z,69.16
2022-12-18T17:12:16.135Z,68.97
2022-12-18T17:17:38.061Z,68.99
2022-12-18T17:22:59.690Z,69.04
2022-12-18T17:28:24.016Z,68.95
2022-12-18T17:33:45.975Z,68.97
2022-12-18T17:39:08.519Z,69.27
2022-12-18T17:44:30.497Z,69.06
2022-12-18T17:49:52.449Z,69.16
2022-12-18T17:55:15.584Z,69.71
2022-12-18T18:00:39.416Z,69.86
2022-12-18T18:06:02.320Z,70.33
2022-12-18T18:11:43.745Z,70.88
2022-12-18T18:17:05.792Z,71.03
2022-12-18T18:22:27.532Z,71.48
2022-12-18T18:27:49.437Z,71.94
2022-12-18T18:33:12.166Z,72.33
2022-12-18T18:38:34.097Z,72.46
2022-12-18T18:43:57.530Z,72.74
2022-12-18T18:49:19.559Z,72.69
2022-12-18T18:54:57.224Z,72.91
2022-12-18T19:00:23.290Z,72.87
2022-12-18T19:05:55.035Z,71.89
2022-12-18T19:11:36.729Z,71.60
2022-12-18T19:16:58.908Z,71.68
2022-12-18T19:22:21.916Z,71.76
2022-12-18T19:27:43.944Z,70.67
2022-12-18T19:33:34.514Z,70.27
2022-12-18T19:38:50.383Z,70.82
2022-12-18T19:44:14.080Z,70.82
2022-12-18T19:49:37.361Z,70.63
2022-12-18T19:54:59.081Z,71.14
2022-12-18T20:00:21.216Z,71.46
2022-12-18T20:05:43.340Z,71.73
2022-12-18T20:11:05.370Z,71.76
2022-12-18T20:16:27.932Z,72.10
2022-12-18T20:21:50.132Z,71.92
2022-12-18T20:27:16.126Z,72.05
2022-12-18T20:32:40.111Z,72.31
2022-12-18T20:38:02.041Z,72.51
2022-12-18T20:43:25.135Z,72.85
2022-12-18T20:48:48.312Z,73.71
2022-12-18T20:54:11.874Z,73.60
2022-12-18T20:59:34.383Z,73.38
2022-12-18T21:04:56.203Z,72.29
2022-12-18T21:10:18.132Z,72.46
2022-12-18T21:15:39.963Z,72.63
2022-12-18T21:21:01.998Z,72.86
2022-12-18T21:26:26.129Z,72.88
2022-12-18T21:31:50.388Z,71.73
2022-12-18T21:37:12.193Z,71.38
2022-12-18T21:42:52.992Z,71.87
2022-12-18T21:48:14.775Z,71.75
2022-12-18T21:53:36.852Z,71.88
2022-12-18T21:58:58.584Z,71.97
2022-12-18T22:04:21.310Z,72.13
2022-12-18T22:09:44.505Z,72.26
2022-12-18T22:15:07.504Z,72.27
2022-12-18T22:20:30.274Z,72.39
2022-12-18T22:25:52.375Z,72.48
2022-12-18T22:31:14.600Z,72.84
2022-12-18T22:36:38.787Z,72.81
2022-12-18T22:42:00.638Z,72.01
2022-12-18T22:47:26.627Z,71.75
2022-12-18T22:52:51.699Z,71.28
2022-12-18T22:58:13.852Z,71.45
2022-12-18T23:03:36.197Z,71.81
2022-12-18T23:08:58.272Z,71.01
2022-12-18T23:14:20.441Z,70.75
2022-12-18T23:19:48.489Z,70.06
2022-12-18T23:25:11.223Z,70.01
2022-12-18T23:30:33.437Z,70.34
2022-12-18T23:35:59.464Z,70.94
2022-12-18T23:41:24.761Z,70.80
2022-12-18T23:46:47.014Z,70.45
2022-12-18T23:52:09.103Z,70.91
2022-12-18T23:57:33.838Z,71.17
